Hovedside
METAR-TAF:

METAR-TAF

Lufthavner :

Billund, Danmark

Billund lufthavn

breddegrad: 55-44N, lengdegrad: 009-10E, høyde over havet: 75 m

Gjeldene værobservasjon

Denne rapporten ble laget for 39 minutter siden, klokken 07:50 UTC
Vind 8 kt fra Øst-sørøst
Temperatur 0°C
Luftfuktighet 100%
Trykk 1008 hPa
Sikt: 2300 m
lett snø

METAR: EKBI 220750Z AUTO 12008KT 2300NDV -SN OVC005/// 00/M00 Q1008 R09/550193

Tid: 09:29 (08:29 UTC)

Varsel

Denne rapporten ble laget for 3 timer og 19 minutter siden, klokken 05:10 UTC
Varsel gyldig fra 22. klokken 06 UTC til 23. klokken 06 UTC
Vind 10 kt fra Sørøst
Sikt: 5000 m
Brutte skyer i en høyde av 600 ft
dis
Midlertidig
fra 22. klokken 06 UTC til 23. klokken 06 UTC
Sikt: 1500 m
Brutte skyer i en høyde av 400 ft
lett snø, dis

TAF: EKBI 220510Z 2206/2306 13010KT 5000 BR BKN006 TEMPO 2206/2306 1500 -SN BR BKN004

Værobservasjoner og værvarsel for over 4000 flyplasser (METAR- og TAF-rapporter).

Tilgjengelige stasjoner er representert av de røde og gule prikkene på kartet.

Hold musepekeren over prikken for å se navnet på stasjonen.

Klikk så for å se værobservasjoner og -varsler.

For å forandre kartet kan du klikke på den grønne knappen med svart kryss for å zoome inn, på den grønne knappen med strek for å zoome ut, eller på de grønne pilene for å se tilstøtende kart.


METAR-TAF: